Terminal Aerodrome Forecast
Issued by NWS

Home | Current Version | Previous Version | Text Only | Print | Product List | Glossary On
Versions: 1 2 3 4 5 6 7 8 9 10 11 12 13 14 15
000
FTUS42 KTAE 240533
TAFECP
TAF
KECP 240533Z 2406/2506 18005KT P6SM VCSH BKN050
      TEMPO 2407/2411 24007KT 3SM TSRA BKN025CB
     FM241400 24007KT P6SM VCTS BKN040CB
     FM241800 24007KT P6SM BKN040
     FM250000 22003KT P6SM SCT040 BKN250=

USA.gov is the U.S. government's official web portal to all federal, state and local government web resources and services.